createdAt,value
2019-01-20T00:02:21.821Z,10.43
2019-01-20T00:04:51.797Z,10.48
2019-01-20T00:07:22.300Z,10.15
2019-01-20T00:09:52.439Z,10.80
2019-01-20T00:12:22.621Z,10.05
2019-01-20T00:14:52.775Z,10.70
2019-01-20T00:17:22.954Z,11.48
2019-01-20T00:19:53.036Z,11.85
2019-01-20T00:22:25.655Z,12.10
2019-01-20T00:24:55.727Z,13.43
2019-01-20T00:27:25.789Z,11.45
2019-01-20T00:29:56.307Z,12.35
2019-01-20T00:32:26.806Z,11.60
2019-01-20T00:34:56.869Z,11.65
2019-01-20T00:37:27.080Z,12.28
2019-01-20T00:39:57.193Z,13.08
2019-01-20T00:42:27.521Z,11.68
2019-01-20T00:45:02.645Z,13.32
2019-01-20T00:47:29.430Z,13.43
2019-01-20T00:49:59.782Z,11.22
2019-01-20T00:52:30.369Z,13.85
2019-01-20T00:55:00.340Z,12.68
2019-01-20T00:57:30.419Z,11.57
2019-01-20T01:00:00.467Z,13.38
2019-01-20T01:02:30.530Z,16.40
2019-01-20T01:05:00.790Z,13.68
2019-01-20T01:07:30.822Z,12.33
2019-01-20T01:10:00.880Z,11.70
2019-01-20T01:12:31.378Z,13.65
2019-01-20T01:15:04.819Z,11.78
2019-01-20T01:17:34.917Z,12.53
2019-01-20T01:20:06.083Z,11.68
2019-01-20T01:22:36.084Z,10.58
2019-01-20T01:25:07.536Z,12.88
2019-01-20T01:27:37.593Z,12.68
2019-01-20T01:30:10.642Z,11.55
2019-01-20T01:32:40.927Z,11.83
2019-01-20T01:35:13.275Z,9.95
2019-01-20T01:37:43.534Z,11.10
2019-01-20T01:40:14.591Z,11.88
2019-01-20T01:42:44.681Z,13.00
2019-01-20T01:45:16.789Z,11.22
2019-01-20T01:47:46.905Z,10.90
2019-01-20T01:50:17.727Z,10.90
2019-01-20T01:52:47.869Z,11.20
2019-01-20T01:55:17.877Z,10.40
2019-01-20T01:57:47.877Z,9.50
2019-01-20T02:00:19.936Z,10.30
2019-01-20T02:02:49.969Z,10.10
2019-01-20T02:05:20.830Z,9.95
2019-01-20T02:07:51.042Z,10.05
2019-01-20T02:10:22.241Z,10.67
2019-01-20T02:12:52.977Z,10.23
2019-01-20T02:15:24.133Z,11.33
2019-01-20T02:17:54.269Z,9.65
2019-01-20T02:20:24.958Z,9.25
2019-01-20T02:22:55.027Z,9.60
2019-01-20T02:25:25.158Z,9.20
2019-01-20T02:27:56.266Z,8.77
2019-01-20T02:30:28.362Z,9.33
2019-01-20T02:32:58.337Z,9.13
2019-01-20T02:35:29.442Z,9.10
2019-01-20T02:37:59.417Z,9.03
2019-01-20T02:40:29.557Z,8.80
2019-01-20T02:42:59.592Z,8.60
2019-01-20T02:45:29.605Z,8.88
2019-01-20T02:47:59.614Z,8.58
2019-01-20T02:50:29.690Z,8.93
2019-01-20T02:52:59.781Z,8.13
2019-01-20T02:55:29.771Z,8.50
2019-01-20T02:57:59.789Z,8.85
2019-01-20T03:00:29.824Z,8.95
2019-01-20T03:02:59.800Z,8.20
2019-01-20T03:05:32.545Z,8.45
2019-01-20T03:08:02.543Z,9.25
2019-01-20T03:10:32.596Z,8.63
2019-01-20T03:13:02.569Z,8.63
2019-01-20T03:15:32.681Z,8.65
2019-01-20T03:18:02.759Z,9.13
2019-01-20T03:20:32.829Z,9.18
2019-01-20T03:23:02.826Z,9.40
2019-01-20T03:25:32.987Z,8.40
2019-01-20T03:28:03.107Z,8.90
2019-01-20T03:30:33.187Z,8.90
2019-01-20T03:33:03.229Z,9.23
2019-01-20T03:35:33.648Z,8.80
2019-01-20T03:38:03.745Z,9.10
2019-01-20T03:40:33.768Z,8.78
2019-01-20T03:43:03.907Z,8.93
2019-01-20T03:45:34.002Z,9.15
2019-01-20T03:48:04.308Z,9.00
2019-01-20T03:50:34.448Z,9.00
2019-01-20T03:53:04.645Z,9.20
2019-01-20T03:55:34.725Z,8.90
2019-01-20T03:58:04.734Z,8.48
2019-01-20T04:00:34.852Z,9.08
2019-01-20T04:03:05.671Z,9.25
2019-01-20T04:05:35.815Z,9.23
2019-01-20T04:08:06.011Z,9.80
2019-01-20T04:10:36.027Z,9.13
2019-01-20T04:13:06.155Z,8.83
2019-01-20T04:15:36.353Z,9.13
2019-01-20T04:18:06.503Z,9.08
2019-01-20T04:20:36.656Z,8.88
2019-01-20T04:23:06.803Z,9.05
2019-01-20T04:25:36.803Z,9.50
2019-01-20T04:28:06.814Z,9.20
2019-01-20T04:30:36.936Z,9.08
2019-01-20T04:33:06.924Z,8.90
2019-01-20T04:35:36.968Z,9.03
2019-01-20T04:38:07.030Z,9.03
2019-01-20T04:40:37.144Z,9.33
2019-01-20T04:43:07.170Z,9.18
2019-01-20T04:45:37.238Z,8.63
2019-01-20T04:48:07.211Z,9.30
2019-01-20T04:50:37.233Z,9.43
2019-01-20T04:53:08.583Z,9.07
2019-01-20T04:55:38.929Z,9.28
2019-01-20T04:58:09.238Z,9.88
2019-01-20T05:00:39.237Z,9.13
2019-01-20T05:03:09.299Z,9.48
2019-01-20T05:05:39.347Z,9.08
2019-01-20T05:08:09.366Z,9.58
2019-01-20T05:10:39.406Z,9.90
2019-01-20T05:13:09.359Z,9.63
2019-01-20T05:15:39.466Z,9.00
2019-01-20T05:18:09.539Z,9.23
2019-01-20T05:20:39.645Z,9.30
2019-01-20T05:23:09.698Z,9.33
2019-01-20T05:25:39.792Z,10.08
2019-01-20T05:28:09.804Z,9.63
2019-01-20T05:30:39.965Z,9.25
2019-01-20T05:33:10.113Z,9.88
2019-01-20T05:35:40.256Z,9.60
2019-01-20T05:38:10.394Z,9.75
2019-01-20T05:40:40.649Z,9.40
2019-01-20T05:43:11.569Z,9.35
2019-01-20T05:45:41.913Z,9.78
2019-01-20T05:48:12.038Z,9.40
2019-01-20T05:50:42.154Z,9.80
2019-01-20T05:53:12.161Z,9.88
2019-01-20T05:55:42.188Z,9.65
2019-01-20T05:58:12.300Z,9.63
2019-01-20T06:00:42.405Z,9.63
2019-01-20T06:03:12.517Z,9.68
2019-01-20T06:05:42.549Z,9.73
2019-01-20T06:08:13.585Z,10.32
2019-01-20T06:10:43.616Z,9.78
2019-01-20T06:13:13.596Z,9.70
2019-01-20T06:15:44.901Z,9.70
2019-01-20T06:18:15.124Z,9.68
2019-01-20T06:20:45.105Z,9.48
2019-01-20T06:23:15.189Z,10.13
2019-01-20T06:25:45.263Z,10.25
2019-01-20T06:28:15.277Z,10.08
2019-01-20T06:30:45.548Z,10.48
2019-01-20T06:33:15.629Z,9.63
2019-01-20T06:35:45.701Z,9.88
2019-01-20T06:38:15.780Z,10.43
2019-01-20T06:40:45.861Z,9.10
2019-01-20T06:43:15.888Z,9.55
2019-01-20T06:45:45.905Z,10.00
2019-01-20T06:48:15.979Z,9.58
2019-01-20T06:50:46.060Z,9.65
2019-01-20T06:53:16.117Z,10.00
2019-01-20T06:55:46.248Z,9.98
2019-01-20T06:58:16.272Z,9.60
2019-01-20T07:00:46.335Z,10.03
2019-01-20T07:03:16.319Z,10.08
2019-01-20T07:05:46.330Z,10.50
2019-01-20T07:08:16.320Z,10.43
2019-01-20T07:10:46.388Z,10.45
2019-01-20T07:13:16.372Z,10.25
2019-01-20T07:15:46.424Z,10.00
2019-01-20T07:18:16.427Z,10.23
2019-01-20T07:20:46.537Z,10.65
2019-01-20T07:23:16.537Z,10.25
2019-01-20T07:25:46.572Z,10.70
2019-01-20T07:28:16.551Z,10.23
2019-01-20T07:30:46.574Z,10.13
2019-01-20T07:33:16.903Z,10.03
2019-01-20T07:35:47.082Z,10.00
2019-01-20T07:38:17.189Z,10.50
2019-01-20T07:40:47.438Z,9.73
2019-01-20T07:43:17.506Z,10.40
2019-01-20T07:45:47.707Z,10.40
2019-01-20T07:48:17.812Z,10.43
2019-01-20T07:50:47.931Z,10.98
2019-01-20T07:53:18.004Z,10.60
2019-01-20T07:55:48.032Z,10.65
2019-01-20T07:58:18.157Z,10.85
2019-01-20T08:00:48.167Z,10.88
2019-01-20T08:03:18.148Z,10.93
2019-01-20T08:05:48.121Z,11.18
2019-01-20T08:08:18.198Z,10.98
2019-01-20T08:10:48.274Z,10.85
2019-01-20T08:13:24.288Z,10.45
2019-01-20T08:15:50.358Z,11.33
2019-01-20T08:18:20.433Z,11.00
2019-01-20T08:20:50.553Z,9.30
2019-01-20T08:23:20.524Z,9.73
2019-01-20T08:25:50.815Z,10.13
2019-01-20T08:28:21.037Z,9.97
2019-01-20T08:30:51.186Z,9.70
2019-01-20T08:33:21.362Z,9.27
2019-01-20T08:35:51.370Z,10.60
2019-01-20T08:38:21.488Z,11.33
2019-01-20T08:40:51.566Z,11.03
2019-01-20T08:43:21.700Z,10.17
2019-01-20T08:46:15.378Z,10.23
2019-01-20T08:48:45.479Z,10.77
2019-01-20T08:51:16.216Z,10.83
2019-01-20T08:53:47.115Z,10.17
2019-01-20T08:56:17.113Z,10.73
2019-01-20T08:58:47.200Z,11.37
2019-01-20T09:01:17.184Z,10.57
2019-01-20T09:03:47.197Z,11.13
2019-01-20T09:06:17.217Z,10.70
2019-01-20T09:08:47.198Z,13.60
2019-01-20T09:11:17.230Z,13.38
2019-01-20T09:13:47.249Z,14.80
2019-01-20T09:16:17.245Z,14.47
2019-01-20T09:18:47.302Z,14.90
2019-01-20T09:21:17.421Z,15.13
2019-01-20T09:23:47.543Z,15.15
2019-01-20T09:26:17.630Z,14.95
2019-01-20T09:28:47.622Z,14.45
2019-01-20T09:31:17.607Z,14.65
2019-01-20T09:33:47.556Z,14.65
2019-01-20T09:36:17.943Z,15.27
2019-01-20T09:38:47.915Z,15.32
2019-01-20T09:41:17.964Z,16.02
2019-01-20T09:43:47.959Z,15.45
2019-01-20T09:46:18.109Z,17.30
2019-01-20T09:48:48.200Z,16.07
2019-01-20T09:51:18.209Z,16.60
2019-01-20T09:53:49.065Z,16.35
2019-01-20T09:56:20.681Z,16.27
2019-01-20T09:59:07.959Z,16.95
2019-01-20T10:01:38.036Z,15.93
2019-01-20T10:04:08.170Z,16.52
2019-01-20T10:06:38.105Z,16.35
2019-01-20T10:09:09.047Z,16.57
2019-01-20T10:11:39.060Z,15.78
2019-01-20T10:14:09.180Z,16.42
2019-01-20T10:16:39.220Z,16.12
2019-01-20T10:19:09.428Z,16.12
2019-01-20T10:21:39.642Z,16.62
2019-01-20T10:24:09.855Z,16.73
2019-01-20T10:26:40.145Z,16.40
2019-01-20T10:29:10.667Z,16.97
2019-01-20T10:31:40.664Z,17.20
2019-01-20T10:34:11.286Z,17.30
2019-01-20T10:36:41.330Z,16.70
2019-01-20T10:39:12.145Z,17.17
2019-01-20T10:41:42.326Z,17.82
2019-01-20T10:44:12.402Z,17.20
2019-01-20T10:46:43.454Z,17.55
2019-01-20T10:49:13.521Z,17.57
2019-01-20T10:51:43.570Z,17.95
2019-01-20T10:54:13.652Z,18.60
2019-01-20T10:56:43.743Z,18.77
2019-01-20T10:59:14.108Z,17.82
2019-01-20T11:01:44.164Z,18.23
2019-01-20T11:04:14.297Z,18.27
2019-01-20T11:06:44.485Z,18.00
2019-01-20T11:09:14.611Z,17.50
2019-01-20T11:11:49.499Z,17.20
2019-01-20T11:14:20.631Z,17.52
2019-01-20T11:16:50.806Z,18.65
2019-01-20T11:19:20.903Z,17.67
2019-01-20T11:21:55.238Z,18.05
2019-01-20T11:24:29.281Z,18.45
2019-01-20T11:27:01.748Z,18.02
2019-01-20T11:29:35.085Z,18.52
2019-01-20T11:32:05.078Z,19.05
2019-01-20T11:34:35.040Z,17.67
2019-01-20T11:37:05.050Z,18.45
2019-01-20T11:39:35.088Z,18.42
2019-01-20T11:42:08.997Z,17.75
2019-01-20T11:44:40.245Z,18.20
2019-01-20T11:47:10.295Z,19.12
2019-01-20T11:49:40.625Z,18.00
2019-01-20T11:52:11.025Z,18.00
2019-01-20T11:54:41.131Z,18.57
2019-01-20T11:57:11.329Z,18.20
2019-01-20T11:59:41.421Z,19.03
2019-01-20T12:02:11.811Z,18.17
2019-01-20T12:04:41.933Z,18.05
2019-01-20T12:07:12.022Z,18.02
2019-01-20T12:09:42.123Z,18.52
2019-01-20T12:12:13.636Z,17.13
2019-01-20T12:14:43.819Z,17.82
2019-01-20T12:17:13.913Z,17.65
2019-01-20T12:19:44.033Z,18.05
2019-01-20T12:22:14.115Z,17.65
2019-01-20T12:24:45.474Z,17.42
2019-01-20T12:27:17.022Z,17.90
2019-01-20T12:29:52.017Z,17.50
2019-01-20T12:32:21.173Z,17.12
2019-01-20T12:34:52.383Z,17.85
2019-01-20T12:37:22.370Z,16.90
2019-01-20T12:39:52.386Z,17.32
2019-01-20T12:42:22.498Z,17.50
2019-01-20T12:44:52.488Z,17.60
2019-01-20T12:47:22.521Z,17.70
2019-01-20T12:49:53.424Z,17.67
2019-01-20T12:52:25.621Z,17.48
2019-01-20T12:54:55.774Z,17.75
2019-01-20T12:57:25.930Z,17.60
2019-01-20T12:59:56.021Z,17.00
2019-01-20T13:02:26.084Z,18.30
2019-01-20T13:04:56.480Z,17.02
2019-01-20T13:07:26.747Z,16.93
2019-01-20T13:09:56.769Z,17.15
2019-01-20T13:12:26.764Z,17.62
2019-01-20T13:14:56.961Z,17.32
2019-01-20T13:17:27.043Z,17.62
2019-01-20T13:19:58.693Z,17.10
2019-01-20T13:22:28.742Z,17.50
2019-01-20T13:24:58.908Z,17.90
2019-01-20T13:27:28.914Z,17.60
2019-01-20T13:30:02.783Z,17.70
2019-01-20T13:32:32.845Z,17.40
2019-01-20T13:35:03.028Z,17.92
2019-01-20T13:37:33.268Z,16.95
2019-01-20T13:40:03.455Z,17.62
2019-01-20T13:42:33.566Z,18.15
2019-01-20T13:45:03.729Z,17.12
2019-01-20T13:47:33.724Z,15.97
2019-01-20T13:50:03.841Z,16.42
2019-01-20T13:52:33.844Z,16.42
2019-01-20T13:55:04.065Z,16.57
2019-01-20T13:57:34.089Z,16.27
2019-01-20T14:00:05.094Z,17.32
2019-01-20T14:02:35.101Z,16.17
2019-01-20T14:05:05.405Z,17.12
2019-01-20T14:07:35.477Z,17.00
2019-01-20T14:10:11.297Z,16.42
2019-01-20T14:12:41.428Z,17.02
2019-01-20T14:15:12.565Z,17.35
2019-01-20T14:17:42.690Z,17.52
2019-01-20T14:20:16.459Z,18.00
2019-01-20T14:22:47.495Z,17.27
2019-01-20T14:25:19.755Z,17.45
2019-01-20T14:27:49.855Z,17.90
2019-01-20T14:30:22.306Z,17.73
2019-01-20T14:32:52.471Z,18.00
2019-01-20T14:35:22.619Z,18.20
2019-01-20T14:37:52.782Z,17.55
2019-01-20T14:40:23.363Z,17.05
2019-01-20T14:42:55.076Z,17.48
2019-01-20T14:45:26.503Z,17.05
2019-01-20T14:47:56.768Z,17.12
2019-01-20T14:50:27.094Z,16.23
2019-01-20T14:52:59.810Z,17.00
2019-01-20T14:55:29.842Z,16.87
2019-01-20T14:57:59.881Z,16.93
2019-01-20T15:00:38.066Z,16.50
2019-01-20T15:03:08.686Z,17.32
2019-01-20T15:05:38.892Z,16.85
2019-01-20T15:08:09.468Z,16.62
2019-01-20T15:11:02.041Z,16.35
2019-01-20T15:13:35.232Z,17.07
2019-01-20T15:16:07.063Z,16.93
2019-01-20T15:18:37.254Z,17.07
2019-01-20T15:21:07.422Z,16.40
2019-01-20T15:23:37.445Z,16.87
2019-01-20T15:26:07.564Z,17.85
2019-01-20T15:28:37.663Z,16.48
2019-01-20T15:31:07.836Z,17.00
2019-01-20T15:33:38.734Z,16.15
2019-01-20T15:36:10.202Z,16.80
2019-01-20T15:38:40.310Z,16.30
2019-01-20T15:41:10.326Z,16.25
2019-01-20T15:43:40.527Z,16.17
2019-01-20T15:46:10.530Z,16.27
2019-01-20T15:48:40.707Z,16.60
2019-01-20T15:51:10.790Z,16.67
2019-01-20T15:53:40.965Z,16.65
2019-01-20T15:56:11.153Z,17.52
2019-01-20T15:58:41.273Z,17.77
2019-01-20T16:01:11.347Z,18.73
2019-01-20T16:03:41.413Z,18.15
2019-01-20T16:06:11.493Z,18.20
2019-01-20T16:08:41.533Z,18.60
2019-01-20T16:11:11.718Z,19.45
2019-01-20T16:13:42.881Z,19.50
2019-01-20T16:16:13.251Z,19.23
2019-01-20T16:18:43.321Z,19.70
2019-01-20T16:21:13.380Z,18.77
2019-01-20T16:23:43.446Z,18.60
2019-01-20T16:26:14.851Z,18.92
2019-01-20T16:28:45.154Z,19.92
2019-01-20T16:31:15.445Z,19.92
2019-01-20T16:33:45.494Z,18.92
2019-01-20T16:36:15.512Z,18.80
2019-01-20T16:38:45.706Z,19.95
2019-01-20T16:41:16.060Z,19.37
2019-01-20T16:43:46.178Z,19.30
2019-01-20T16:46:16.226Z,19.35
2019-01-20T16:48:46.320Z,19.95
2019-01-20T16:51:16.418Z,19.02
2019-01-20T16:53:46.750Z,19.10
2019-01-20T16:56:16.841Z,20.35
2019-01-20T16:58:51.301Z,19.92
2019-01-20T17:01:19.019Z,21.07
2019-01-20T17:03:49.130Z,20.35
2019-01-20T17:06:19.156Z,20.10
2019-01-20T17:08:49.269Z,19.65
2019-01-20T17:11:19.405Z,20.10
2019-01-20T17:13:50.411Z,19.57
2019-01-20T17:16:21.906Z,18.98
2019-01-20T17:18:52.102Z,18.60
2019-01-20T17:21:22.164Z,19.00
2019-01-20T17:23:52.177Z,18.70
2019-01-20T17:26:22.311Z,19.20
2019-01-20T17:28:52.485Z,19.90
2019-01-20T17:31:22.638Z,19.55
2019-01-20T17:33:52.696Z,19.45
2019-01-20T17:36:22.753Z,19.98
2019-01-20T17:38:53.271Z,20.05
2019-01-20T17:41:23.289Z,20.90
2019-01-20T17:43:53.371Z,20.97
2019-01-20T17:46:23.455Z,20.90
2019-01-20T17:48:53.534Z,20.68
2019-01-20T17:51:23.657Z,20.20
2019-01-20T17:53:53.790Z,21.33
2019-01-20T17:56:23.829Z,22.70
2019-01-20T17:58:53.855Z,21.25
2019-01-20T18:01:23.887Z,21.57
2019-01-20T18:03:53.927Z,21.83
2019-01-20T18:06:24.352Z,21.70
2019-01-20T18:08:54.397Z,21.20
2019-01-20T18:11:24.468Z,21.07
2019-01-20T18:13:54.613Z,21.37
2019-01-20T18:16:24.646Z,21.45
2019-01-20T18:18:54.669Z,21.87
2019-01-20T18:21:24.779Z,20.88
2019-01-20T18:23:55.357Z,21.55
2019-01-20T18:26:29.632Z,21.62
2019-01-20T18:29:02.483Z,21.17
2019-01-20T18:31:35.509Z,21.00
2019-01-20T18:34:05.633Z,21.68
2019-01-20T18:36:47.985Z,21.52
2019-01-20T18:39:18.584Z,21.57
2019-01-20T18:41:48.683Z,21.97
2019-01-20T18:44:18.916Z,21.97
2019-01-20T18:46:48.938Z,21.63
2019-01-20T18:49:19.052Z,21.30
2019-01-20T18:51:49.551Z,20.88
2019-01-20T18:54:19.616Z,21.70
2019-01-20T18:56:49.897Z,21.80
2019-01-20T18:59:21.067Z,21.13
2019-01-20T19:01:51.205Z,21.07
2019-01-20T19:04:21.315Z,21.23
2019-01-20T19:06:54.477Z,20.93
2019-01-20T19:09:24.626Z,22.40
2019-01-20T19:11:54.707Z,22.33
2019-01-20T19:14:24.709Z,21.82
2019-01-20T19:16:54.818Z,22.40
2019-01-20T19:19:25.112Z,22.45
2019-01-20T19:21:55.622Z,21.75
2019-01-20T19:24:25.805Z,22.32
2019-01-20T19:26:57.761Z,22.35
2019-01-20T19:29:27.796Z,21.40
2019-01-20T19:31:57.951Z,21.57
2019-01-20T19:34:31.452Z,22.15
2019-01-20T19:37:01.605Z,21.17
2019-01-20T19:39:31.820Z,22.22
2019-01-20T19:42:02.184Z,21.55
2019-01-20T19:44:32.640Z,21.20
2019-01-20T19:47:05.763Z,21.90
2019-01-20T19:49:35.880Z,20.90
2019-01-20T19:52:06.257Z,21.75
2019-01-20T19:54:38.929Z,21.37
2019-01-20T19:57:09.293Z,22.37
2019-01-20T19:59:39.577Z,21.45
2019-01-20T20:02:09.755Z,21.33
2019-01-20T20:04:39.911Z,21.90
2019-01-20T20:07:11.406Z,21.33
2019-01-20T20:09:41.436Z,20.45
2019-01-20T20:12:11.462Z,21.82
2019-01-20T20:14:41.628Z,21.97
2019-01-20T20:17:13.022Z,21.00
2019-01-20T20:19:55.153Z,22.30
2019-01-20T20:22:26.903Z,21.17
2019-01-20T20:24:59.283Z,21.23
2019-01-20T20:27:32.136Z,22.13
2019-01-20T20:30:02.406Z,22.45
2019-01-20T20:32:33.781Z,22.58
2019-01-20T20:35:05.691Z,23.70
2019-01-20T20:37:36.956Z,22.05
2019-01-20T20:40:09.656Z,22.90
2019-01-20T20:42:40.045Z,23.98
2019-01-20T20:45:12.805Z,24.18
2019-01-20T20:47:42.817Z,24.05
2019-01-20T20:50:14.348Z,22.93
2019-01-20T20:52:46.963Z,22.80
2019-01-20T20:55:16.351Z,23.20
2019-01-20T20:57:46.744Z,22.30
2019-01-20T21:00:25.851Z,24.12
2019-01-20T21:02:59.781Z,23.25
2019-01-20T21:05:30.067Z,23.30
2019-01-20T21:08:02.958Z,23.98
2019-01-20T21:10:33.072Z,24.30
2019-01-20T21:13:03.262Z,23.57
2019-01-20T21:15:35.357Z,24.25
2019-01-20T21:18:05.619Z,24.35
2019-01-20T21:20:35.769Z,23.55
2019-01-20T21:23:11.989Z,23.73
2019-01-20T21:25:41.278Z,22.45
2019-01-20T21:28:13.573Z,23.10
2019-01-20T21:30:45.401Z,25.20
2019-01-20T21:33:17.389Z,23.35
2019-01-20T21:35:48.925Z,23.77
2019-01-20T21:38:19.223Z,22.32
2019-01-20T21:40:49.406Z,23.50
2019-01-20T21:43:19.578Z,23.22
2019-01-20T21:45:49.836Z,23.70
2019-01-20T21:48:20.455Z,24.75
2019-01-20T21:50:50.740Z,23.77
2019-01-20T21:53:24.746Z,24.87
2019-01-20T21:55:54.961Z,24.55
2019-01-20T21:58:26.460Z,24.57
2019-01-20T22:01:01.953Z,23.95
2019-01-20T22:03:32.092Z,24.40
2019-01-20T22:06:02.300Z,24.67
2019-01-20T22:08:33.745Z,24.92
2019-01-20T22:11:04.083Z,24.40
2019-01-20T22:13:34.260Z,25.75
2019-01-20T22:16:04.452Z,25.95
2019-01-20T22:18:37.443Z,30.90
2019-01-20T22:21:07.548Z,28.35
2019-01-20T22:23:38.890Z,30.20
2019-01-20T22:26:09.127Z,28.50
2019-01-20T22:28:39.236Z,26.57
2019-01-20T22:31:09.552Z,27.98
2019-01-20T22:33:39.553Z,26.23
2019-01-20T22:36:09.599Z,24.73
2019-01-20T22:38:42.575Z,24.95
2019-01-20T22:41:15.631Z,24.55
2019-01-20T22:43:45.980Z,26.97
2019-01-20T22:46:16.084Z,24.80
2019-01-20T22:48:46.155Z,23.07
2019-01-20T22:51:16.340Z,24.07
2019-01-20T22:53:46.394Z,25.82
2019-01-20T22:56:16.673Z,27.42
2019-01-20T22:58:48.149Z,24.98
2019-01-20T23:01:24.828Z,24.15
2019-01-20T23:03:58.049Z,23.62
2019-01-20T23:06:28.091Z,23.42
2019-01-20T23:08:58.131Z,22.10
2019-01-20T23:11:28.304Z,23.05
2019-01-20T23:13:58.392Z,21.57
2019-01-20T23:16:28.574Z,21.97
2019-01-20T23:18:58.911Z,22.55
2019-01-20T23:21:28.861Z,22.82
2019-01-20T23:23:59.131Z,22.37
2019-01-20T23:26:29.516Z,21.73
2019-01-20T23:28:59.556Z,21.40
2019-01-20T23:31:29.733Z,21.52
2019-01-20T23:34:03.106Z,23.10
2019-01-20T23:36:33.127Z,22.20
2019-01-20T23:39:03.381Z,21.37
2019-01-20T23:41:34.636Z,22.52
2019-01-20T23:44:04.845Z,22.30
2019-01-20T23:46:34.989Z,22.55
2019-01-20T23:49:05.122Z,22.73
2019-01-20T23:51:35.131Z,19.90
2019-01-20T23:54:05.380Z,23.37
2019-01-20T23:56:35.538Z,23.80
2019-01-20T23:59:05.579Z,21.85
